• Join FlightAware (Why Join?)
  • Login
  • US Flag 
07:26AM EDT


 

Airport Tracker/Info


-or-


 

Live Flight TrackerFlight Track Log ✈ SWA1398 ✈ 27-Apr-2013 ✈ KMCO - KPHL

Flight Track Log - Related Links

Times and Time Zones

All times are in EDT time to prevent confusion due to time zone crossing. See the SWA1398 flight status page for this flight to view local times or setup timezone preferences in your user account.

Time Position Orientation Groundspeed Altitude Reporting Facility
EDT Latitude Longitude Course Direction KTS MPH feet Rate Location/Type
06:28PM 28.4000 -81.3000 156° South 169 194 900  Level Orlando TRACON
06:29PM 28.3667 -81.2833 156° South 182 209 2,200 2,100 Climbing Orlando TRACON
06:30PM 28.3333 -81.2333 127° Southeast 226 260 4,500 2,580 Climbing Orlando TRACON
06:31PM 28.3500 -81.1667 74° East 271 312 7,400 2,820 Climbing Orlando TRACON
06:33PM 28.5183 -81.1844 355° North 270 311 13,900 2,880 Climbing Jacksonville Center
06:34PM 28.6169 -81.2183 343° North 321 369 16,900 2,820 Climbing Jacksonville Center
06:35PM 28.7197 -81.2567 342° North 357 411 19,600 2,640 Climbing Jacksonville Center
06:36PM 28.8267 -81.2953 342° North 386 444 22,200 2,520 Climbing Jacksonville Center
06:37PM 28.9378 -81.3314 344° North 402 463 24,700 2,340 Climbing Jacksonville Center
06:38PM 29.0489 -81.3725 342° North 407 468 26,900 1,980 Climbing Jacksonville Center
06:39PM 29.1700 -81.3850 355° North 417 480 28,700 1,020 Climbing Jacksonville Center
06:40PM 29.2931 -81.3878 359° North 429 494 29,000 600 Climbing Jacksonville Center
06:41PM 29.4183 -81.3906 359° North 440 506 29,900 1,560 Climbing Jacksonville Center
06:42PM 29.5417 -81.3958 358° North 440 506 32,200 1,800 Climbing Jacksonville Center
06:43PM 29.6647 -81.3964 360° North 440 506 33,600 1,380 Climbing Jacksonville Center
06:44PM 29.7881 -81.3992 359° North 440 506 35,000 660 Climbing Jacksonville Center
06:45PM 29.9133 -81.4022 359° North 440 506 35,000  Level Jacksonville Center
06:46PM 30.0344 -81.4050 359° North 440 506 35,000  Level Jacksonville Center
06:47PM 30.1472 -81.4056 360° North 440 506 35,000 480 Level Jacksonville Center
06:48PM 30.2658 -81.3678 15° North 433 498 36,000 900 Climbing Jacksonville Center
06:49PM 30.3842 -81.3106 23° Northeast 438 504 36,800 1,020 Climbing Jacksonville Center
06:50PM 30.5003 -81.2556 22° Northeast 443 510 38,100 1,080 Climbing Jacksonville Center
06:51PM 30.6100 -81.1836 29° Northeast 443 510 39,000 420 Climbing Jacksonville Center
06:52PM 30.7217 -81.1117 29° Northeast 448 516 39,000  Level Jacksonville Center
06:53PM 30.8314 -81.0417 29° Northeast 448 516 39,000  Level Jacksonville Center
06:54PM 30.9431 -80.9669 30° Northeast 453 521 39,000  Level Jacksonville Center
06:55PM 31.0506 -80.8969 29° Northeast 453 521 39,000  Level Jacksonville Center
06:56PM 31.1600 -80.8267 29° Northeast 453 521 39,000  Level Jacksonville Center
06:57PM 31.2675 -80.7536 30° Northeast 453 521 39,000  Level Jacksonville Center
06:58PM 31.3747 -80.6808 30° Northeast 448 516 39,000  Level Jacksonville Center
06:59PM 31.4861 -80.6097 29° Northeast 448 516 39,000  Level Jacksonville Center
07:00PM 31.5914 -80.5367 31° Northeast 448 516 39,000  Level Jacksonville Center
07:01PM 31.7108 -80.4553 30° Northeast 448 516 39,000  Level Jacksonville Center
07:02PM 31.8097 -80.3892 30° Northeast 443 510 39,000  Level Jacksonville Center
07:03PM 31.9169 -80.3153 30° Northeast 443 510 39,000  Level Jacksonville Center
07:04PM 32.0219 -80.2439 30° Northeast 438 504 39,000  Level Jacksonville Center
07:05PM 32.1311 -80.1719 29° Northeast 438 504 39,000  Level Jacksonville Center
07:06PM 32.2381 -80.0975 30° Northeast 438 504 39,000  Level Jacksonville Center
07:07PM 32.3428 -80.0281 29° Northeast 438 504 39,000  Level Jacksonville Center
07:08PM 32.4456 -79.9558 31° Northeast 438 504 39,000  Level Jacksonville Center
07:09PM 32.5525 -79.8808 31° Northeast 438 504 39,000  Level Jacksonville Center
07:10PM 32.6572 -79.8108 29° Northeast 438 504 39,000  Level Jacksonville Center
07:11PM 32.7719 -79.7253 32° Northeast 443 510 39,000  Level Jacksonville Center
07:12PM 32.8700 -79.6453 34° Northeast 443 510 39,000  Level Jacksonville Center
07:13PM 32.9722 -79.5622 34° Northeast 443 510 39,000  Level Jacksonville Center
07:14PM 33.0767 -79.4792 34° Northeast 443 510 39,000  Level Jacksonville Center
07:15PM 33.1808 -79.3958 34° Northeast 443 510 39,000 -120 Level Jacksonville Center
07:16PM 33.2825 -79.3097 35° Northeast 443 510 38,800 -600 Descending Jacksonville Center
07:17PM 33.3844 -79.2261 34° Northeast 443 510 37,800 -1,020 Descending Jacksonville Center
07:18PM 33.4925 -79.1394 34° Northeast 448 516 36,800 -900 Descending Jacksonville Center
07:19PM 33.5844 -79.0656 34° Northeast 443 510 36,000 -720 Descending Jacksonville Center
07:21PM 33.7561 -78.9236 34° Northeast 446 513 35,000 -420 Descending Washington Center
07:22PM 33.8608 -78.8378 34° Northeast 451 519 35,000  Level Washington Center
07:23PM 33.9653 -78.7542 34° Northeast 451 519 35,000  Level Washington Center
07:24PM 34.0697 -78.6656 35° Northeast 456 525 35,000  Level Washington Center
07:25PM 34.1742 -78.5789 34° Northeast 456 525 35,000  Level Washington Center
07:26PM 34.2786 -78.4922 34° Northeast 456 525 35,000  Level Washington Center
07:27PM 34.3828 -78.4078 34° Northeast 456 525 35,000  Level Washington Center
07:28PM 34.4850 -78.3206 35° Northeast 456 525 35,000  Level Washington Center
07:29PM 34.5933 -78.2308 34° Northeast 456 525 35,000  Level Washington Center
07:30PM 34.6997 -78.1408 35° Northeast 456 525 35,000  Level Washington Center
07:31PM 34.8017 -78.0506 36° Northeast 456 525 35,000  Level Washington Center
07:32PM 34.8953 -77.9647 37° Northeast 456 525 35,000  Level Washington Center
07:33PM 34.9969 -77.8789 35° Northeast 456 525 35,000  Level Washington Center
07:34PM 35.1053 -77.7881 34° Northeast 456 525 35,000  Level Washington Center
07:35PM 35.2092 -77.6969 36° Northeast 456 525 35,000  Level Washington Center
07:36PM 35.3128 -77.6081 35° Northeast 456 525 35,000  Level Washington Center
07:37PM 35.4186 -77.5164 35° Northeast 456 525 35,000  Level Washington Center
07:38PM 35.5222 -77.4269 35° Northeast 456 525 35,000  Level Washington Center
07:39PM 35.6281 -77.3372 35° Northeast 456 525 35,000  Level Washington Center
07:40PM 35.7294 -77.2425 37° Northeast 461 531 35,000  Level Washington Center
07:41PM 35.8350 -77.1522 35° Northeast 456 525 35,000  Level Washington Center
07:42PM 35.9469 -77.0494 37° Northeast 456 525 35,000  Level Washington Center
07:43PM 36.0503 -76.9586 35° Northeast 456 525 35,000  Level Washington Center
07:44PM 36.1533 -76.8653 36° Northeast 456 525 35,000  Level Washington Center
07:45PM 36.2567 -76.7742 35° Northeast 456 525 35,000  Level Washington Center
07:46PM 36.3619 -76.6831 35° Northeast 456 525 35,000  Level Washington Center
07:47PM 36.4647 -76.5889 36° Northeast 456 525 35,000 -480 Level Washington Center
07:48PM 36.5719 -76.5128 30° Northeast 456 525 34,100 -960 Descending Washington Center
07:49PM 36.6850 -76.4364 28° Northeast 456 525 33,100 -960 Descending Washington Center
07:50PM 36.7942 -76.3569 30° Northeast 451 519 32,200 -960 Descending Washington Center
07:51PM 36.9050 -76.2803 29° Northeast 451 519 31,200 -1,080 Descending Washington Center
07:52PM 37.0139 -76.2031 30° Northeast 445 512 30,100 -1,020 Descending Washington Center
07:53PM 37.1125 -76.1389 27° Northeast 440 506 29,200 -960 Descending Washington Center
07:54PM 37.2169 -76.0664 29° Northeast 434 499 28,200 -1,080 Descending Washington Center
07:55PM 37.3172 -75.9967 29° Northeast 423 487 27,100 -1,440 Descending Washington Center
07:56PM 37.4136 -75.9292 29° Northeast 410 472 25,400 -1,080 Descending Washington Center
07:57PM 37.5139 -75.8561 30° Northeast 405 466 25,000 -240 Descending Washington Center
07:58PM 37.6161 -75.7831 30° Northeast 405 466 25,000  Level Washington Center
07:59PM 37.7183 -75.7125 29° Northeast 405 466 25,000  Level Washington Center
08:00PM 37.8206 -75.6364 30° Northeast 410 472 25,000  Level Washington Center
08:01PM 37.9228 -75.5628 30° Northeast 415 478 25,000  Level Washington Center
08:02PM 38.0250 -75.4917 29° Northeast 415 478 25,000  Level Washington Center
08:03PM 38.1292 -75.4256 27° Northeast 415 478 25,000 -60 Level Washington Center
08:04PM 38.2375 -75.3592 26° Northeast 415 478 24,900 -1,200 Descending Washington Center
08:05PM 38.3394 -75.2847 30° Northeast 420 483 22,700 -2,340 Descending Washington Center
08:06PM 38.4394 -75.2233 26° Northeast 408 470 20,400 -2,280 Descending Washington Center
08:07PM 38.5353 -75.1644 26° Northeast 389 448 18,100 -2,460 Descending Washington Center
08:08PM 38.6267 -75.1053 27° Northeast 371 427 15,500 -1,560 Descending Washington Center
08:09PM 38.7267 -75.0808 11° North 366 421 15,000 -300 Descending Washington Center
08:10PM 38.8286 -75.0667 North 356 410 15,000  Level Washington Center
08:11PM 38.9267 -75.0525 North 356 410 15,000 -240 Level Washington Center
08:12PM 39.0267 -75.0386 North 356 410 14,600 -1,380 Descending Washington Center
08:13PM 39.1267 -75.0244 North 356 410 12,300 -1,620 Descending Washington Center
08:14PM 39.3000 -75.0000 North 285 328 10,100 -1,200 Descending Philadelphia TRACON
08:15PM 39.3833 -74.9833 North 266 306 9,000 -600 Descending Philadelphia TRACON
08:16PM 39.4333 -74.9833 360° North 253 291 9,000 -180 Level Philadelphia TRACON
08:17PM 39.5000 -74.9667 11° North 254 292 8,700 -720 Descending Philadelphia TRACON
08:18PM 39.5833 -74.9667 360° North 250 288 7,600 -1,080 Descending Philadelphia TRACON
08:19PM 39.6500 -74.9500 11° North 251 289 6,500 -1,200 Descending Philadelphia TRACON
08:20PM 39.7167 -74.9833 339° North 254 292 5,200 -1,320 Descending Philadelphia TRACON
08:21PM 39.7833 -75.0333 330° Northwest 238 274 3,900 -1,200 Descending Philadelphia TRACON
08:22PM 39.8333 -75.0667 333° Northwest 210 242 2,900 -960 Descending Philadelphia TRACON
08:23PM 39.8667 -75.1000 322° Northwest 151 174 2,000 -780 Descending Philadelphia TRACON
08:24PM 39.8833 -75.1500 293° West 137 158 1,400 -720 Descending Philadelphia TRACON
08:25PM 39.8833 -75.1833 270° West 133 153 600 -840 Descending Philadelphia TRACON